Estación Meteorológica Peña el Pijo (Robertgarden) [ 05/26/19 18:43:50 CEST ]

Fecha Hora Presion(HPa) Temp (°C) Humedad % Rocio (°C) Viento ( m/s) Direccion Lluvia 1Hora(mm) Lluvia 24H(mm) LLuvia Total(mm)
2018-Dec-22 01:01:44 1020.200 1.1 78 -2.4         160.58
2018-Dec-22 02:06:39 1020.000 0.9 80 -2.2         160.58
2018-Dec-22 03:01:59 1019.700 1.0 81 -1.9         160.58
2018-Dec-22 04:01:41 1019.700 0.6 82 -2.1         160.58
2018-Dec-22 05:01:36 1019.400 1.1 83 -1.5         160.58
2018-Dec-22 06:01:48 1019.300 0.4 83 -2.2         160.58
2018-Dec-22 07:01:50 1019.500 0.9 85 -1.4         160.58
2018-Dec-22 08:01:52 1019.800 0.9 85 -1.4         160.58
2018-Dec-22 09:01:50 1019.800 0.9 85 -1.4         160.58
2018-Dec-22 10:01:53 1020.200 5.2 87 3.2         160.58
2018-Dec-22 11:01:59 1020.500 11.3 78 7.8         160.58
2018-Dec-22 12:01:44 1019.800 15.5 60 7.8         160.58
2018-Dec-22 13:01:49 1019.100 16.9 50 6.4         160.58
2018-Dec-22 14:01:48 1018.300 19.9 39 5.5         160.58
2018-Dec-22 15:01:35 1017.800 19.9 38 5.1         160.58
2018-Dec-22 16:01:41 1018.000 18.5 39 4.2         160.58
2018-Dec-22 17:01:44 1018.300 15.3 46 3.7         160.58
2018-Dec-22 18:01:50 1018.700 11.2 55 2.4         160.58
2018-Dec-22 19:01:41 1019.000 8.8 64 2.3         160.58
2018-Dec-22 20:01:34 1019.400 5.9 68 0.5         160.58
2018-Dec-22 21:01:38 1019.800 4.4 73 -0.1         160.58
2018-Dec-22 22:01:36 1019.700 3.6 75 -0.4         160.58
2018-Dec-22 23:01:53 1019.900 2.8 77 -0.8         160.58

Temperatura Máxima:19°    Temperatura Mínima:
Presión Máxima:1020.500 Hpa    Presión Mínima:1017.800 Hpa


Volver